Liberty Grace — WADN — position and weather

sailwx.info

Track history (hours):
 
Tides and Currents Weather Stations Pressure Air Temp Water Temp Dewpoint Dewpoint Depression Visibility Wind Speed Wind Dir Waves Ship Positions

Liberty Grace

Owner: Liberty Shipping Group, LLC, LAKE SUCCESS, NY. More information available from US FCC via Universal Licensing System and Coast Guard Vessel Documentation Center.

Last reported at 2015-Jun-26 00:24 UTC. Time now 2015-Jul-06 00:59 UTC.
Position N 25°44' W 079°29'.
Warning: this ship's position is 10 days out of date.

Type: Cargo ship. MMSI: 338219000.

Date/timePositionNaut miles runAvg speedWind from/ knotsBaromVisibWave heightAir tempDewpointWater temp
2015-Jun-26 00:24N 25°44' W 079°29'1012.1
2015-Jun-25 23:34N 25°52' W 079°23'1813.1
2015-Jun-25 22:14N 26°07' W 079°14'  
2015-Jun-19 18:00N 36°12' W 042°42'59213.8 110 / 281020.4 5.4 1.524.019.424.0
2015-Jun-17 23:04N 37°23' W 030°28'813.8
2015-Jun-17 22:31N 37°23' W 030°19'1313.8
2015-Jun-17 21:33N 37°23' W 030°02'1413.8
2015-Jun-17 20:33N 37°24' W 029°45'1414.0
2015-Jun-17 19:33N 37°24' W 029°27'1413.9
2015-Jun-17 18:33N 37°24' W 029°10'1413.9
2015-Jun-17 17:33N 37°24' W 028°52'1414.1
2015-Jun-17 16:33N 37°24' W 028°34'1414.0
2015-Jun-17 15:33N 37°24' W 028°17'1413.6
2015-Jun-17 14:33N 37°24' W 027°60'1413.6
2015-Jun-17 13:32N 37°25' W 027°42'1313.4
2015-Jun-17 12:33N 37°26' W 027°26'1413.7
2015-Jun-17 11:34N 37°26' W 027°08'1413.9
2015-Jun-17 10:33N 37°26' W 026°51'1413.7
2015-Jun-17 09:33N 37°27' W 026°34'1413.9
2015-Jun-17 08:33N 37°27' W 026°16'1414.1
2015-Jun-17 07:33N 37°28' W 025°58'1413.8
2015-Jun-17 06:34N 37°28' W 025°41'1414.3
2015-Jun-17 05:34N 37°29' W 025°23'1414.3
2015-Jun-17 04:34N 37°29' W 025°05'1514.6
2015-Jun-17 03:34N 37°29' W 024°47'1414.2
2015-Jun-17 02:34N 37°28' W 024°29'1414.3
2015-Jun-17 01:34N 37°26' W 024°11'1514.6
2015-Jun-17 00:34N 37°24' W 023°53'  
Track history (hours):
 
Tides and Currents Weather Stations Pressure Air Temp Water Temp Dewpoint Dewpoint Depression Visibility Wind Speed Wind Dir Waves Ship Positions

Liberty Grace

Owner: Liberty Shipping Group, LLC, LAKE SUCCESS, NY. More information available from US FCC via Universal Licensing System and Coast Guard Vessel Documentation Center.

Last reported at 2015-Jun-26 00:24 UTC. Time now 2015-Jul-06 00:59 UTC.
Position N 25°44' W 079°29'.
Warning: this ship's position is 10 days out of date.

Type: Cargo ship. MMSI: 338219000.

Date/timePositionNaut miles runAvg speedWind from/ knotsBaromVisibWave heightAir tempDewpointWater temp
2015-Jun-26 00:24N 25°44' W 079°29'1012.1
2015-Jun-25 23:34N 25°52' W 079°23'1813.1
2015-Jun-25 22:14N 26°07' W 079°14'  
2015-Jun-19 18:00N 36°12' W 042°42'59213.8 110 / 281020.4 5.4 1.524.019.424.0
2015-Jun-17 23:04N 37°23' W 030°28'813.8
2015-Jun-17 22:31N 37°23' W 030°19'1313.8
2015-Jun-17 21:33N 37°23' W 030°02'1413.8
2015-Jun-17 20:33N 37°24' W 029°45'1414.0
2015-Jun-17 19:33N 37°24' W 029°27'1413.9
2015-Jun-17 18:33N 37°24' W 029°10'1413.9
2015-Jun-17 17:33N 37°24' W 028°52'1414.1
2015-Jun-17 16:33N 37°24' W 028°34'1414.0
2015-Jun-17 15:33N 37°24' W 028°17'1413.6
2015-Jun-17 14:33N 37°24' W 027°60'1413.6
2015-Jun-17 13:32N 37°25' W 027°42'1313.4
2015-Jun-17 12:33N 37°26' W 027°26'1413.7
2015-Jun-17 11:34N 37°26' W 027°08'1413.9
2015-Jun-17 10:33N 37°26' W 026°51'1413.7
2015-Jun-17 09:33N 37°27' W 026°34'1413.9
2015-Jun-17 08:33N 37°27' W 026°16'1414.1
2015-Jun-17 07:33N 37°28' W 025°58'1413.8
2015-Jun-17 06:34N 37°28' W 025°41'1414.3
2015-Jun-17 05:34N 37°29' W 025°23'1414.3
2015-Jun-17 04:34N 37°29' W 025°05'1514.6
2015-Jun-17 03:34N 37°29' W 024°47'1414.2
2015-Jun-17 02:34N 37°28' W 024°29'1414.3
2015-Jun-17 01:34N 37°26' W 024°11'1514.6
2015-Jun-17 00:34N 37°24' W 023°53'  

Dump ship's entire track history